createdAt,value
2023-03-27T00:01:02.379Z,98494.84
2023-03-27T00:03:30.236Z,98491.81
2023-03-27T00:06:09.115Z,98489.19
2023-03-27T00:08:36.484Z,98490.69
2023-03-27T00:11:04.556Z,98488.56
2023-03-27T00:13:31.405Z,98483.47
2023-03-27T00:15:58.311Z,98483.38
2023-03-27T00:18:26.134Z,98476.41
2023-03-27T00:20:52.735Z,98480.81
2023-03-27T00:23:19.363Z,98463.84
2023-03-27T00:25:50.364Z,98465.94
2023-03-27T00:28:20.403Z,98461.53
2023-03-27T00:30:48.446Z,98466.97
2023-03-27T00:33:15.105Z,98450.63
2023-03-27T00:35:50.069Z,98448.94
2023-03-27T00:38:17.816Z,98443.66
2023-03-27T00:40:46.837Z,98442.59
2023-03-27T00:43:28.901Z,98433.16
2023-03-27T00:46:00.872Z,98430.06
2023-03-27T00:48:30.493Z,98423.63
2023-03-27T00:51:00.016Z,98414.47
2023-03-27T00:53:29.127Z,98416.53
2023-03-27T00:56:00.330Z,98414.06
2023-03-27T00:58:53.503Z,98408.09
2023-03-27T01:01:23.751Z,98400.13
2023-03-27T01:03:52.568Z,98399.69
2023-03-27T01:06:19.857Z,98397.22
2023-03-27T01:08:46.808Z,98398.06
2023-03-27T01:11:45.968Z,98388.47
2023-03-27T01:14:30.429Z,98377.31
2023-03-27T01:17:10.289Z,98377.84
2023-03-27T01:20:01.409Z,98373.88
2023-03-27T01:22:37.029Z,98377.69
2023-03-27T01:25:38.575Z,98369.13
2023-03-27T01:28:34.482Z,98368.03
2023-03-27T01:31:19.222Z,98351.59
2023-03-27T01:34:20.520Z,98353.09
2023-03-27T01:37:11.927Z,98340.81
2023-03-27T01:39:57.044Z,98345.50
2023-03-27T01:42:40.677Z,98346.22
2023-03-27T01:45:25.436Z,98349.19
2023-03-27T01:48:10.706Z,98345.81
2023-03-27T01:50:54.130Z,98339.13
2023-03-27T01:53:28.500Z,98340.44
2023-03-27T01:56:09.624Z,98334.59
2023-03-27T01:58:43.459Z,98339.09
2023-03-27T02:01:11.247Z,98332.84
2023-03-27T02:03:43.690Z,98325.97
2023-03-27T02:06:24.985Z,98316.19
2023-03-27T02:09:03.061Z,98319.00
2023-03-27T02:11:37.546Z,98315.91
2023-03-27T02:14:12.785Z,98326.00
2023-03-27T02:16:45.470Z,98321.22
2023-03-27T02:19:17.007Z,98321.84
2023-03-27T02:21:43.693Z,98317.81
2023-03-27T02:24:10.305Z,98316.19
2023-03-27T02:26:37.105Z,98310.91
2023-03-27T02:29:28.494Z,98303.75
2023-03-27T02:32:27.430Z,98295.25
2023-03-27T02:35:10.011Z,98279.59
2023-03-27T02:37:53.066Z,98257.38
2023-03-27T02:40:39.866Z,98252.81
2023-03-27T02:43:34.137Z,98231.53
2023-03-27T02:46:42.243Z,98234.31
2023-03-27T02:49:14.607Z,98240.53
2023-03-27T02:52:02.741Z,98239.44
2023-03-27T02:54:36.045Z,98241.00
2023-03-27T02:57:12.492Z,98231.69
2023-03-27T02:59:43.849Z,98228.78
2023-03-27T03:02:16.862Z,98223.53
2023-03-27T03:04:53.042Z,98217.16
2023-03-27T03:07:19.742Z,98215.75
2023-03-27T03:09:46.388Z,98214.91
2023-03-27T03:12:13.069Z,98211.38
2023-03-27T03:14:42.575Z,98210.31
2023-03-27T03:17:09.305Z,98218.94
2023-03-27T03:19:35.947Z,98209.34
2023-03-27T03:22:04.023Z,98218.44
2023-03-27T03:24:30.649Z,98217.91
2023-03-27T03:26:58.223Z,98213.94
2023-03-27T03:29:24.795Z,98213.09
2023-03-27T03:31:51.423Z,98211.91
2023-03-27T03:34:18.969Z,98209.44
2023-03-27T03:36:46.502Z,98205.00
2023-03-27T03:39:13.311Z,98206.44
2023-03-27T03:41:40.019Z,98212.53
2023-03-27T03:44:06.680Z,98201.56
2023-03-27T03:46:33.657Z,98199.41
2023-03-27T03:49:00.669Z,98205.97
2023-03-27T03:51:27.494Z,98195.34
2023-03-27T03:53:54.241Z,98196.97
2023-03-27T03:56:20.817Z,98190.09
2023-03-27T03:58:47.456Z,98192.72
2023-03-27T04:01:14.098Z,98192.06
2023-03-27T04:03:40.936Z,98188.56
2023-03-27T04:06:07.978Z,98188.97
2023-03-27T04:08:35.372Z,98186.63
2023-03-27T04:11:03.230Z,98186.69
2023-03-27T04:13:30.176Z,98187.16
2023-03-27T04:15:56.820Z,98189.47
2023-03-27T04:18:23.528Z,98199.91
2023-03-27T04:20:50.176Z,98197.75
2023-03-27T04:23:17.650Z,98195.03
2023-03-27T04:25:45.473Z,98199.53
2023-03-27T04:28:12.899Z,98189.72
2023-03-27T04:30:39.546Z,98180.72
2023-03-27T04:33:06.283Z,98186.16
2023-03-27T04:35:33.369Z,98191.41
2023-03-27T04:38:00.011Z,98181.09
2023-03-27T04:40:26.750Z,98188.56
2023-03-27T04:42:53.405Z,98173.47
2023-03-27T04:45:20.066Z,98176.47
2023-03-27T04:47:46.998Z,98171.09
2023-03-27T04:50:13.633Z,98176.84
2023-03-27T04:52:40.336Z,98172.91
2023-03-27T04:55:07.742Z,98174.31
2023-03-27T04:57:35.323Z,98171.09
2023-03-27T05:00:04.205Z,98168.75
2023-03-27T05:02:30.832Z,98158.84
2023-03-27T05:04:57.485Z,98162.06
2023-03-27T05:07:25.686Z,98155.06
2023-03-27T05:09:52.774Z,98149.75
2023-03-27T05:12:20.493Z,98143.78
2023-03-27T05:14:47.267Z,98151.28
2023-03-27T05:17:15.210Z,98150.66
2023-03-27T05:19:42.610Z,98146.72
2023-03-27T05:22:09.456Z,98132.59
2023-03-27T05:24:36.068Z,98139.50
2023-03-27T05:27:02.810Z,98137.50
2023-03-27T05:29:29.406Z,98138.66
2023-03-27T05:32:13.551Z,98141.94
2023-03-27T05:34:40.140Z,98141.47
2023-03-27T05:37:06.777Z,98145.56
2023-03-27T05:39:33.431Z,98138.59
2023-03-27T05:42:00.045Z,98137.19
2023-03-27T05:44:26.769Z,98136.78
2023-03-27T05:46:53.363Z,98134.66
2023-03-27T05:49:20.003Z,98126.31
2023-03-27T05:51:47.405Z,98126.16
2023-03-27T05:54:14.126Z,98125.03
2023-03-27T05:56:41.048Z,98121.34
2023-03-27T05:59:07.709Z,98127.16
2023-03-27T06:01:34.356Z,98118.66
2023-03-27T06:04:01.242Z,98115.56
2023-03-27T06:06:28.151Z,98125.44
2023-03-27T06:08:54.799Z,98119.78
2023-03-27T06:11:21.650Z,98117.19
2023-03-27T06:13:48.283Z,98117.91
2023-03-27T06:16:15.027Z,98112.00
2023-03-27T06:18:41.755Z,98111.97
2023-03-27T06:21:08.367Z,98105.72
2023-03-27T06:23:35.021Z,98108.41
2023-03-27T06:26:01.815Z,98105.25
2023-03-27T06:28:28.421Z,98114.44
2023-03-27T06:30:55.582Z,98102.91
2023-03-27T06:33:22.209Z,98115.91
2023-03-27T06:35:53.020Z,98111.03
2023-03-27T06:38:20.465Z,98114.72
2023-03-27T06:40:47.358Z,98111.47
2023-03-27T06:45:46.386Z,98106.06
2023-03-27T06:48:20.931Z,98104.41
2023-03-27T06:50:52.004Z,98098.97
2023-03-27T06:55:50.653Z,98101.84
2023-03-27T06:58:18.025Z,98107.50
2023-03-27T07:00:48.043Z,98105.72
2023-03-27T07:03:14.694Z,98109.47
2023-03-27T07:05:41.585Z,98104.81
2023-03-27T07:08:22.329Z,98106.31
2023-03-27T07:10:59.731Z,98108.78
2023-03-27T07:13:27.440Z,98112.72
2023-03-27T07:15:54.150Z,98112.94
2023-03-27T07:18:20.908Z,98121.94
2023-03-27T07:20:47.644Z,98124.63
2023-03-27T07:23:14.238Z,98121.78
2023-03-27T07:25:42.954Z,98111.53
2023-03-27T07:28:12.932Z,98110.59
2023-03-27T07:30:39.929Z,98110.34
2023-03-27T07:33:07.366Z,98118.19
2023-03-27T07:35:34.136Z,98114.94
2023-03-27T07:38:02.165Z,98120.72
2023-03-27T07:40:38.968Z,98118.31
2023-03-27T07:43:06.605Z,98126.03
2023-03-27T07:45:34.787Z,98131.56
2023-03-27T07:48:08.394Z,98130.47
2023-03-27T07:50:36.112Z,98128.00
2023-03-27T07:53:02.782Z,98126.03
2023-03-27T07:55:29.419Z,98127.94
2023-03-27T07:58:01.774Z,98126.81
2023-03-27T08:00:30.166Z,98128.31
2023-03-27T08:03:05.672Z,98117.88
2023-03-27T08:05:32.396Z,98121.94
2023-03-27T08:07:59.017Z,98113.59
2023-03-27T08:10:25.660Z,98116.56
2023-03-27T08:12:52.553Z,98124.41
2023-03-27T08:15:19.298Z,98130.41
2023-03-27T08:17:45.977Z,98134.66
2023-03-27T08:20:14.137Z,98138.34
2023-03-27T08:22:41.423Z,98131.41
2023-03-27T08:25:08.988Z,98139.16
2023-03-27T08:27:36.288Z,98146.69
2023-03-27T08:30:03.342Z,98147.41
2023-03-27T08:32:30.046Z,98144.19
2023-03-27T08:34:56.695Z,98148.84
2023-03-27T08:37:23.475Z,98157.06
2023-03-27T08:39:50.252Z,98159.38
2023-03-27T08:42:21.373Z,98152.34
2023-03-27T08:44:51.085Z,98161.50
2023-03-27T08:47:34.160Z,98165.22
2023-03-27T08:50:04.398Z,98163.41
2023-03-27T08:52:33.260Z,98169.97
2023-03-27T08:55:16.300Z,98170.00
2023-03-27T08:57:42.898Z,98170.34
2023-03-27T09:00:19.014Z,98161.56
2023-03-27T09:03:01.715Z,98166.66
2023-03-27T09:05:55.446Z,98165.69
2023-03-27T09:08:31.792Z,98171.25
2023-03-27T09:11:16.922Z,98172.28
2023-03-27T09:13:51.363Z,98173.41
2023-03-27T09:16:28.259Z,98177.50
2023-03-27T09:19:04.312Z,98170.47
2023-03-27T09:21:54.002Z,98177.00
2023-03-27T09:24:28.470Z,98183.28
2023-03-27T09:27:06.740Z,98177.50
2023-03-27T09:29:38.888Z,98180.94
2023-03-27T09:32:13.590Z,98181.19
2023-03-27T09:34:41.178Z,98183.34
2023-03-27T09:37:13.495Z,98173.09
2023-03-27T09:39:45.804Z,98176.31
2023-03-27T09:42:25.894Z,98182.22
2023-03-27T09:44:57.131Z,98184.59
2023-03-27T09:48:12.661Z,98189.75
2023-03-27T09:50:47.293Z,98203.91
2023-03-27T09:53:16.969Z,98201.69
2023-03-27T09:55:57.872Z,98208.38
2023-03-27T09:58:27.581Z,98205.38
2023-03-27T10:01:10.814Z,98217.88
2023-03-27T10:03:40.571Z,98217.50
2023-03-27T10:06:10.742Z,98212.88
2023-03-27T10:08:44.088Z,98218.03
2023-03-27T10:11:17.150Z,98216.75
2023-03-27T10:13:45.935Z,98222.81
2023-03-27T10:16:12.714Z,98224.13
2023-03-27T10:18:47.096Z,98223.16
2023-03-27T10:21:23.713Z,98225.28
2023-03-27T10:23:50.578Z,98233.59
2023-03-27T10:26:21.052Z,98226.41
2023-03-27T10:28:50.468Z,98227.84
2023-03-27T10:31:30.346Z,98237.66
2023-03-27T10:34:00.152Z,98239.97
2023-03-27T10:36:26.753Z,98240.19
2023-03-27T10:39:01.480Z,98231.47
2023-03-27T10:41:29.582Z,98239.53
2023-03-27T10:43:57.744Z,98239.19
2023-03-27T10:46:28.926Z,98237.88
2023-03-27T10:49:08.431Z,98239.47
2023-03-27T10:51:59.312Z,98245.88
2023-03-27T10:54:37.799Z,98246.09
2023-03-27T10:57:12.579Z,98250.34
2023-03-27T10:59:50.218Z,98250.88
2023-03-27T11:02:41.442Z,98254.72
2023-03-27T11:05:29.073Z,98248.09
2023-03-27T11:08:15.813Z,98255.34
2023-03-27T11:10:47.053Z,98257.25
2023-03-27T11:13:18.279Z,98252.78
2023-03-27T11:15:52.706Z,98247.97
2023-03-27T11:18:23.539Z,98262.72
2023-03-27T11:21:11.780Z,98264.00
2023-03-27T11:23:42.720Z,98275.88
2023-03-27T11:26:13.583Z,98271.66
2023-03-27T11:29:04.152Z,98279.56
2023-03-27T11:31:51.331Z,98271.47
2023-03-27T11:34:29.259Z,98278.72
2023-03-27T11:37:19.346Z,98271.06
2023-03-27T11:39:56.169Z,98281.03
2023-03-27T11:42:27.952Z,98274.81
2023-03-27T11:44:57.912Z,98277.88
2023-03-27T11:47:46.116Z,98276.38
2023-03-27T11:50:16.592Z,98281.75
2023-03-27T11:53:02.359Z,98286.97
2023-03-27T11:56:07.504Z,98298.38
2023-03-27T11:58:59.610Z,98280.31
2023-03-27T12:01:44.824Z,98294.34
2023-03-27T12:04:40.769Z,98291.84
2023-03-27T12:07:35.769Z,98287.94
2023-03-27T12:10:27.453Z,98289.28
2023-03-27T12:13:14.533Z,98294.13
2023-03-27T12:16:08.712Z,98294.13
2023-03-27T12:19:26.751Z,98319.00
2023-03-27T12:22:28.692Z,98315.31
2023-03-27T12:25:42.852Z,98306.22
2023-03-27T12:28:23.215Z,98314.19
2023-03-27T12:31:08.208Z,98331.75
2023-03-27T12:34:02.041Z,98319.66
2023-03-27T12:36:35.111Z,98326.75
2023-03-27T12:39:01.907Z,98337.38
2023-03-27T12:41:32.825Z,98336.38
2023-03-27T12:44:01.923Z,98336.19
2023-03-27T12:46:34.365Z,98337.59
2023-03-27T12:49:01.227Z,98336.91
2023-03-27T12:52:02.458Z,98336.78
2023-03-27T12:54:34.043Z,98349.63
2023-03-27T12:57:08.155Z,98359.25
2023-03-27T12:59:50.216Z,98360.44
2023-03-27T13:02:35.478Z,98354.31
2023-03-27T13:05:27.351Z,98367.09
2023-03-27T13:08:06.574Z,98373.41
2023-03-27T13:11:02.296Z,98387.91
2023-03-27T13:13:44.091Z,98388.69
2023-03-27T13:16:16.389Z,98388.53
2023-03-27T13:19:06.217Z,98400.06
2023-03-27T13:21:38.657Z,98417.63
2023-03-27T13:24:29.201Z,98413.63
2023-03-27T13:27:05.308Z,98429.28
2023-03-27T13:29:34.450Z,98429.13
2023-03-27T13:32:04.996Z,98441.44
2023-03-27T13:34:34.483Z,98443.22
2023-03-27T13:37:09.990Z,98456.47
2023-03-27T13:40:02.024Z,98465.53
2023-03-27T13:42:35.450Z,98471.88
2023-03-27T13:45:10.340Z,98481.56
2023-03-27T13:48:06.978Z,98483.06
2023-03-27T13:51:08.261Z,98503.50
2023-03-27T13:53:46.489Z,98507.59
2023-03-27T13:56:51.540Z,98519.44
2023-03-27T13:59:21.051Z,98523.75
2023-03-27T14:02:20.314Z,98535.94
2023-03-27T14:04:46.937Z,98538.06
2023-03-27T14:07:22.350Z,98542.41
2023-03-27T14:10:26.764Z,98552.72
2023-03-27T14:13:12.023Z,98565.50
2023-03-27T14:15:46.608Z,98579.41
2023-03-27T14:18:48.138Z,98586.59
2023-03-27T14:21:27.665Z,98589.44
2023-03-27T14:24:37.927Z,98607.16
2023-03-27T14:27:06.863Z,98604.44
2023-03-27T14:29:33.505Z,98617.78
2023-03-27T14:32:12.126Z,98629.25
2023-03-27T14:34:53.325Z,98637.13
2023-03-27T14:37:29.445Z,98632.84
2023-03-27T14:39:58.261Z,98650.59
2023-03-27T14:42:32.589Z,98653.41
2023-03-27T14:45:20.158Z,98676.59
2023-03-27T14:47:55.050Z,98662.91
2023-03-27T14:50:22.941Z,98686.59
2023-03-27T14:52:55.059Z,98673.41
2023-03-27T14:55:27.199Z,98667.78
2023-03-27T14:57:59.011Z,98676.53
2023-03-27T15:00:29.224Z,98679.13
2023-03-27T15:03:05.059Z,98704.00
2023-03-27T15:05:31.788Z,98704.16
2023-03-27T15:08:00.071Z,98710.16
2023-03-27T15:10:31.701Z,98713.06
2023-03-27T15:12:58.464Z,98729.75
2023-03-27T15:15:34.256Z,98720.09
2023-03-27T15:18:02.799Z,98739.03
2023-03-27T15:20:30.994Z,98723.91
2023-03-27T15:23:11.213Z,98757.88
2023-03-27T15:25:52.463Z,98755.25
2023-03-27T15:28:27.297Z,98764.19
2023-03-27T15:30:56.581Z,98762.91
2023-03-27T15:33:47.547Z,98774.69
2023-03-27T15:36:17.884Z,98787.16
2023-03-27T15:38:44.673Z,98792.47
2023-03-27T15:41:17.252Z,98801.84
2023-03-27T15:43:44.110Z,98815.75
2023-03-27T15:46:19.220Z,98820.16
2023-03-27T15:48:47.433Z,98833.19
2023-03-27T15:51:20.223Z,98830.03
2023-03-27T15:53:49.729Z,98834.25
2023-03-27T15:56:19.490Z,98850.63
2023-03-27T15:58:57.475Z,98849.84
2023-03-27T16:01:36.339Z,98856.84
2023-03-27T16:04:18.954Z,98882.53
2023-03-27T16:06:51.932Z,98868.22
2023-03-27T16:09:55.533Z,98892.44
2023-03-27T16:12:31.457Z,98894.19
2023-03-27T16:14:59.452Z,98917.56
2023-03-27T16:17:29.011Z,98907.03
2023-03-27T16:20:24.061Z,98917.63
2023-03-27T16:22:51.010Z,98916.41
2023-03-27T16:25:17.770Z,98916.47
2023-03-27T16:27:53.567Z,98931.34
2023-03-27T16:30:24.203Z,98943.53
2023-03-27T16:32:50.838Z,98950.53
2023-03-27T16:35:17.927Z,98956.66
2023-03-27T16:37:44.961Z,98963.47
2023-03-27T16:40:12.042Z,98968.63
2023-03-27T16:42:38.670Z,98977.34
2023-03-27T16:45:05.724Z,98981.78
2023-03-27T16:47:32.831Z,98994.69
2023-03-27T16:50:10.762Z,98998.72
2023-03-27T16:52:38.168Z,99011.09
2023-03-27T16:55:07.207Z,99004.84
2023-03-27T16:57:35.584Z,99020.69
2023-03-27T17:00:02.239Z,99025.91
2023-03-27T17:02:28.961Z,99023.31
2023-03-27T17:04:55.656Z,99040.38
2023-03-27T17:07:22.416Z,99049.97
2023-03-27T17:09:49.029Z,99054.34
2023-03-27T17:12:15.735Z,99059.47
2023-03-27T17:14:42.472Z,99057.63
2023-03-27T17:17:12.197Z,99075.03
2023-03-27T17:19:38.837Z,99068.97
2023-03-27T17:22:05.510Z,99084.63
2023-03-27T17:24:33.354Z,99092.34
2023-03-27T17:27:04.713Z,99092.41
2023-03-27T17:29:31.283Z,99101.13
2023-03-27T17:31:57.975Z,99116.75
2023-03-27T17:34:24.698Z,99126.16
2023-03-27T17:36:54.385Z,99137.59
2023-03-27T17:39:22.133Z,99130.69
2023-03-27T17:41:51.906Z,99134.97
2023-03-27T17:44:18.611Z,99140.25
2023-03-27T17:46:45.317Z,99153.22
2023-03-27T17:49:12.017Z,99147.22
2023-03-27T17:51:38.624Z,99156.69
2023-03-27T17:54:05.297Z,99153.31
2023-03-27T17:56:32.065Z,99151.63
2023-03-27T17:58:58.670Z,99155.00
2023-03-27T18:01:25.289Z,99170.63
2023-03-27T18:03:52.030Z,99168.00
2023-03-27T18:06:19.200Z,99174.22
2023-03-27T18:08:46.525Z,99195.88
2023-03-27T18:11:15.162Z,99196.72
2023-03-27T18:13:41.789Z,99200.22
2023-03-27T18:16:09.016Z,99209.81
2023-03-27T18:18:36.743Z,99200.38
2023-03-27T18:21:03.618Z,99209.88
2023-03-27T18:23:30.318Z,99213.41
2023-03-27T18:25:57.523Z,99214.28
2023-03-27T18:28:24.216Z,99217.00
2023-03-27T18:30:59.720Z,99209.16
2023-03-27T18:33:26.410Z,99215.22
2023-03-27T18:35:54.418Z,99223.75
2023-03-27T18:38:21.380Z,99230.81
2023-03-27T18:40:48.121Z,99238.53
2023-03-27T18:43:14.716Z,99238.63
2023-03-27T18:45:41.356Z,99244.59
2023-03-27T18:48:08.538Z,99253.38
2023-03-27T18:50:35.302Z,99258.53
2023-03-27T18:53:01.986Z,99267.06
2023-03-27T18:55:28.693Z,99261.94
2023-03-27T18:57:55.306Z,99269.75
2023-03-27T19:00:22.069Z,99278.44
2023-03-27T19:02:48.981Z,99276.69
2023-03-27T19:05:15.980Z,99285.41
2023-03-27T19:07:44.262Z,99295.81
2023-03-27T19:10:11.957Z,99275.06
2023-03-27T19:12:38.567Z,99270.72
2023-03-27T19:15:17.365Z,99281.94
2023-03-27T19:17:46.764Z,99284.53
2023-03-27T19:20:13.421Z,99285.44
2023-03-27T19:22:40.102Z,99264.69
2023-03-27T19:25:07.347Z,99300.19
2023-03-27T19:27:38.657Z,99307.06
2023-03-27T19:30:09.036Z,99301.97
2023-03-27T19:32:35.684Z,99307.06
2023-03-27T19:35:02.281Z,99302.84
2023-03-27T19:37:29.477Z,99315.69
2023-03-27T19:39:56.196Z,99339.97
2023-03-27T19:42:22.822Z,99324.41
2023-03-27T19:44:49.425Z,99352.13
2023-03-27T19:47:16.092Z,99332.28
2023-03-27T19:49:44.052Z,99335.69
2023-03-27T19:52:10.772Z,99352.13
2023-03-27T19:54:37.462Z,99355.63
2023-03-27T19:57:04.207Z,99357.34
2023-03-27T19:59:31.403Z,99376.38
2023-03-27T20:01:58.681Z,99360.75
2023-03-27T20:04:25.401Z,99367.69
2023-03-27T20:06:52.109Z,99355.66
2023-03-27T20:09:18.749Z,99368.63
2023-03-27T20:11:45.401Z,99366.03
2023-03-27T20:14:12.141Z,99373.78
2023-03-27T20:16:38.989Z,99378.97
2023-03-27T20:19:05.669Z,99372.91
2023-03-27T20:21:34.834Z,99379.75
2023-03-27T20:24:02.254Z,99379.75
2023-03-27T20:26:29.022Z,99387.63
2023-03-27T20:28:55.655Z,99382.41
2023-03-27T20:31:22.484Z,99399.72
2023-03-27T20:33:49.112Z,99391.94
2023-03-27T20:36:15.784Z,99392.78
2023-03-27T20:38:42.645Z,99401.44
2023-03-27T20:41:09.257Z,99396.16
2023-03-27T20:43:35.862Z,99400.56
2023-03-27T20:46:03.962Z,99418.75
2023-03-27T20:48:31.359Z,99408.34
2023-03-27T20:50:58.191Z,99411.81
2023-03-27T20:53:26.289Z,99417.91
2023-03-27T20:55:59.958Z,99413.56
2023-03-27T20:58:33.410Z,99421.34
2023-03-27T21:01:00.252Z,99427.44
2023-03-27T21:03:27.066Z,99422.25
2023-03-27T21:05:53.659Z,99424.84
2023-03-27T21:08:20.266Z,99421.34
2023-03-27T21:10:54.634Z,99432.63
2023-03-27T21:13:21.354Z,99433.47
2023-03-27T21:15:48.193Z,99426.59
2023-03-27T21:18:14.905Z,99438.66
2023-03-27T21:20:41.492Z,99440.41
2023-03-27T21:23:08.291Z,99443.88
2023-03-27T21:25:35.278Z,99450.78
2023-03-27T21:28:02.154Z,99449.94
2023-03-27T21:30:47.353Z,99451.63
2023-03-27T21:33:16.193Z,99460.28
2023-03-27T21:35:46.469Z,99460.28
2023-03-27T21:38:15.028Z,99476.75
2023-03-27T21:40:41.682Z,99482.78
2023-03-27T21:43:08.717Z,99474.16
2023-03-27T21:45:36.625Z,99484.50
2023-03-27T21:48:03.450Z,99483.66
2023-03-27T21:50:30.335Z,99486.25
2023-03-27T21:52:57.241Z,99495.75
2023-03-27T21:55:24.060Z,99490.56
2023-03-27T21:57:50.755Z,99508.72
2023-03-27T22:00:17.790Z,99515.59
2023-03-27T22:02:44.419Z,99505.22
2023-03-27T22:05:11.126Z,99521.66
2023-03-27T22:07:37.724Z,99530.31
2023-03-27T22:10:05.823Z,99527.69
2023-03-27T22:12:36.837Z,99536.38
2023-03-27T22:15:04.294Z,99522.53
2023-03-27T22:17:31.109Z,99540.66
2023-03-27T22:19:57.919Z,99538.94
2023-03-27T22:22:24.959Z,99547.59
2023-03-27T22:24:51.613Z,99544.13
2023-03-27T22:27:18.520Z,99553.63
2023-03-27T22:29:45.277Z,99554.50
2023-03-27T22:32:11.939Z,99552.75
2023-03-27T22:34:38.563Z,99560.53
2023-03-27T22:37:05.237Z,99559.69
2023-03-27T22:39:32.051Z,99562.25
2023-03-27T22:41:58.802Z,99550.19
2023-03-27T22:44:25.561Z,99570.94
2023-03-27T22:46:52.501Z,99564.84
2023-03-27T22:49:19.242Z,99575.25
2023-03-27T22:51:45.908Z,99575.22
2023-03-27T22:54:12.548Z,99576.97
2023-03-27T22:56:39.236Z,99589.03
2023-03-27T22:59:06.053Z,99590.78
2023-03-27T23:01:32.918Z,99589.91
2023-03-27T23:03:59.662Z,99594.22
2023-03-27T23:06:26.375Z,99603.75
2023-03-27T23:08:53.082Z,99592.50
2023-03-27T23:11:19.980Z,99609.72
2023-03-27T23:13:47.134Z,99607.97
2023-03-27T23:16:13.975Z,99606.31
2023-03-27T23:18:40.960Z,99617.53
2023-03-27T23:21:11.206Z,99631.41
2023-03-27T23:23:39.786Z,99638.31
2023-03-27T23:26:07.572Z,99639.13
2023-03-27T23:28:38.151Z,99639.19
2023-03-27T23:31:07.553Z,99650.41
2023-03-27T23:33:37.376Z,99651.22
2023-03-27T23:36:07.515Z,99651.22
2023-03-27T23:38:34.389Z,99661.53
2023-03-27T23:41:02.712Z,99654.66
2023-03-27T23:43:31.237Z,99665.13
2023-03-27T23:45:58.626Z,99665.94
2023-03-27T23:48:26.652Z,99671.09
2023-03-27T23:50:53.275Z,99677.09
2023-03-27T23:53:22.218Z,99668.53
2023-03-27T23:55:48.906Z,99683.16
2023-03-27T23:58:15.550Z,99683.84
